Aviation Digital Data Service (ADDS)

Output produced by METARs form (0537 UTC 07 May 2015)
found at http://aviationweather.gov/adds/metars/
 
KLBE 070528Z 0706/0806 00000KT P6SM SKC 
     FM070700 00000KT 4SM BR SKC 
     FM070900 VRB02KT 2SM BR SKC 
     TEMPO 0709/0712 1/2SM FG SKC 
     FM071300 10005KT P6SM BKN050